createdAt,value
2023-03-10T00:00:23.153Z,145365.69
2023-03-10T00:01:28.452Z,145377.69
2023-03-10T00:02:31.200Z,145334.44
2023-03-10T00:03:33.718Z,145347.63
2023-03-10T00:04:36.304Z,145369.28
2023-03-10T00:05:39.184Z,145383.69
2023-03-10T00:06:41.880Z,145368.06
2023-03-10T00:07:44.760Z,145380.06
2023-03-10T00:08:47.775Z,145381.28
2023-03-10T00:09:50.163Z,145372.88
2023-03-10T00:10:52.559Z,145352.44
2023-03-10T00:11:55.081Z,145340.44
2023-03-10T00:12:57.602Z,145357.28
2023-03-10T00:14:00.603Z,145366.88
2023-03-10T00:15:05.043Z,145357.28
2023-03-10T00:16:08.952Z,145353.63
2023-03-10T00:17:11.543Z,145350.03
2023-03-10T00:18:14.043Z,145341.63
2023-03-10T00:19:16.449Z,145354.84
2023-03-10T00:20:18.974Z,145366.88
2023-03-10T00:21:26.891Z,145380.06
2023-03-10T00:22:29.406Z,145335.63
2023-03-10T00:23:31.930Z,145338.03
2023-03-10T00:24:34.479Z,145328.44
2023-03-10T00:25:36.967Z,145357.28
2023-03-10T00:26:39.488Z,145338.03
2023-03-10T00:27:42.374Z,145362.06
2023-03-10T00:28:45.145Z,145362.06
2023-03-10T00:29:52.222Z,145396.94
2023-03-10T00:30:59.335Z,145392.13
2023-03-10T00:32:01.821Z,145363.28
2023-03-10T00:33:04.338Z,145359.69
2023-03-10T00:34:06.985Z,145351.22
2023-03-10T00:35:09.859Z,145375.28
2023-03-10T00:36:18.620Z,145402.94
2023-03-10T00:37:22.943Z,145405.34
2023-03-10T00:38:25.342Z,145374.06
2023-03-10T00:39:27.861Z,145398.13
2023-03-10T00:40:30.271Z,145371.69
2023-03-10T00:41:36.764Z,145376.47
2023-03-10T00:42:39.390Z,145359.69
2023-03-10T00:43:42.032Z,145380.06
2023-03-10T00:44:44.440Z,145363.28
2023-03-10T00:45:46.949Z,145362.06
2023-03-10T00:46:49.602Z,145363.28
2023-03-10T00:47:52.228Z,145372.88
2023-03-10T00:48:54.750Z,145351.22
2023-03-10T00:49:57.155Z,145321.19
2023-03-10T00:51:00.276Z,145340.44
2023-03-10T00:52:02.798Z,145344.03
2023-03-10T00:53:05.315Z,145353.63
2023-03-10T00:54:07.955Z,145347.63
2023-03-10T00:55:10.479Z,145364.47
2023-03-10T00:56:18.879Z,145387.28
2023-03-10T00:57:21.397Z,145363.28
2023-03-10T00:58:23.828Z,145362.06
2023-03-10T00:59:26.323Z,145352.44
2023-03-10T01:00:28.850Z,145341.63
2023-03-10T01:01:34.748Z,145364.47
2023-03-10T01:02:37.367Z,145356.03
2023-03-10T01:03:39.763Z,145400.53
2023-03-10T01:04:42.394Z,145376.47
2023-03-10T01:05:45.403Z,145353.63
2023-03-10T01:06:47.960Z,145350.03
2023-03-10T01:07:50.924Z,145376.47
2023-03-10T01:08:55.276Z,145371.69
2023-03-10T01:09:57.770Z,145350.03
2023-03-10T01:11:00.406Z,145364.47
2023-03-10T01:12:03.167Z,145350.03
2023-03-10T01:13:05.569Z,145381.28
2023-03-10T01:14:11.214Z,145389.72
2023-03-10T01:15:13.735Z,145350.03
2023-03-10T01:16:16.719Z,145371.69
2023-03-10T01:17:19.250Z,145358.47
2023-03-10T01:18:22.392Z,145354.84
2023-03-10T01:19:24.894Z,145359.69
2023-03-10T01:20:27.411Z,145347.63
2023-03-10T01:21:32.576Z,145369.28
2023-03-10T01:22:35.092Z,145381.28
2023-03-10T01:23:37.374Z,145369.28
2023-03-10T01:24:39.914Z,145362.06
2023-03-10T01:25:43.376Z,145374.06
2023-03-10T01:26:46.018Z,145366.88
2023-03-10T01:27:48.538Z,145357.28
2023-03-10T01:28:51.422Z,145351.22
2023-03-10T01:29:54.058Z,145340.44
2023-03-10T01:30:57.689Z,145345.22
2023-03-10T01:32:00.193Z,145344.03
2023-03-10T01:33:02.700Z,145357.28
2023-03-10T01:34:05.585Z,145357.28
2023-03-10T01:35:08.462Z,145381.28
2023-03-10T01:36:13.172Z,145386.09
2023-03-10T01:37:15.670Z,145386.09
2023-03-10T01:38:18.182Z,145376.47
2023-03-10T01:39:20.702Z,145362.06
2023-03-10T01:40:23.346Z,145371.69
2023-03-10T01:41:26.231Z,145364.47
2023-03-10T01:42:30.187Z,145362.06
2023-03-10T01:43:41.106Z,145375.28
2023-03-10T01:44:43.627Z,145356.03
2023-03-10T01:45:46.155Z,145352.44
2023-03-10T01:46:52.331Z,145354.84
2023-03-10T01:48:07.384Z,145350.03
2023-03-10T01:49:34.884Z,145375.28
2023-03-10T01:50:38.111Z,145376.47
2023-03-10T01:51:46.067Z,145398.13
2023-03-10T01:52:56.718Z,145400.53
2023-03-10T01:53:59.716Z,145369.28
2023-03-10T01:55:07.277Z,145366.88
2023-03-10T01:56:09.914Z,145357.28
2023-03-10T01:57:15.192Z,145398.13
2023-03-10T01:58:20.256Z,145398.13
2023-03-10T01:59:24.083Z,145383.69
2023-03-10T02:00:28.332Z,145377.69
2023-03-10T02:01:32.833Z,145362.06
2023-03-10T02:02:37.878Z,145389.72
2023-03-10T02:03:54.439Z,145407.72
2023-03-10T02:04:58.274Z,145402.94
2023-03-10T02:06:11.357Z,145407.72
2023-03-10T02:07:14.597Z,145383.69
2023-03-10T02:08:18.438Z,145402.94
2023-03-10T02:09:21.706Z,145386.09
2023-03-10T02:10:24.246Z,145383.69
2023-03-10T02:11:28.049Z,145398.13
2023-03-10T02:12:30.564Z,145381.28
2023-03-10T02:13:33.211Z,145386.09
2023-03-10T02:14:36.243Z,145395.72
2023-03-10T02:15:40.889Z,145383.69
2023-03-10T02:16:43.510Z,145378.88
2023-03-10T02:17:48.143Z,145387.28
2023-03-10T02:18:50.849Z,145366.88
2023-03-10T02:20:10.050Z,145394.53
2023-03-10T02:21:34.052Z,145407.72
2023-03-10T02:22:39.094Z,145407.72
2023-03-10T02:24:08.739Z,145418.53
2023-03-10T02:25:37.552Z,145424.56
2023-03-10T02:26:56.382Z,145386.09
2023-03-10T02:27:59.378Z,145357.28
2023-03-10T02:29:07.057Z,145388.47
2023-03-10T02:30:35.621Z,145384.88
2023-03-10T02:31:39.532Z,145366.88
2023-03-10T02:32:50.901Z,145399.31
2023-03-10T02:33:53.742Z,145369.28
2023-03-10T02:34:56.502Z,145371.69
2023-03-10T02:36:04.837Z,145411.34
2023-03-10T02:37:07.304Z,145388.47
2023-03-10T02:38:09.823Z,145400.53
2023-03-10T02:39:12.347Z,145396.94
2023-03-10T02:40:35.026Z,145393.31
2023-03-10T02:41:45.432Z,145352.44
2023-03-10T02:42:50.507Z,145354.84
2023-03-10T02:43:54.828Z,145398.13
2023-03-10T02:45:03.604Z,145389.72
2023-03-10T02:46:07.698Z,145395.72
2023-03-10T02:47:14.277Z,145381.28
2023-03-10T02:48:28.431Z,145395.72
2023-03-10T02:49:33.951Z,145393.31
2023-03-10T02:50:40.560Z,145402.94
2023-03-10T02:51:45.491Z,145399.31
2023-03-10T02:52:57.954Z,145398.13
2023-03-10T02:54:01.554Z,145390.94
2023-03-10T02:55:04.443Z,145401.72
2023-03-10T02:56:07.553Z,145402.94
2023-03-10T02:57:12.359Z,145395.72
2023-03-10T02:58:15.971Z,145386.09
2023-03-10T02:59:18.475Z,145394.53
2023-03-10T03:00:25.199Z,145387.28
2023-03-10T03:01:28.226Z,145386.09
2023-03-10T03:02:33.066Z,145410.13
2023-03-10T03:03:36.023Z,145398.13
2023-03-10T03:04:38.998Z,145381.28
2023-03-10T03:05:41.528Z,145384.88
2023-03-10T03:06:44.759Z,145395.72
2023-03-10T03:07:47.771Z,145398.13
2023-03-10T03:08:50.401Z,145401.72
2023-03-10T03:09:54.968Z,145410.13
2023-03-10T03:10:57.483Z,145413.72
2023-03-10T03:12:01.202Z,145390.94
2023-03-10T03:13:04.085Z,145411.34
2023-03-10T03:14:07.961Z,145402.94
2023-03-10T03:15:10.808Z,145405.34
2023-03-10T03:16:13.753Z,145419.72
2023-03-10T03:17:17.528Z,145393.31
2023-03-10T03:18:20.190Z,145402.94
2023-03-10T03:19:22.941Z,145400.53
2023-03-10T03:20:26.302Z,145406.53
2023-03-10T03:21:29.058Z,145392.13
2023-03-10T03:22:31.815Z,145402.94
2023-03-10T03:23:34.940Z,145412.53
2023-03-10T03:24:37.931Z,145396.94
2023-03-10T03:25:41.896Z,145422.19
2023-03-10T03:26:47.056Z,145402.94
2023-03-10T03:27:53.543Z,145399.31
2023-03-10T03:28:56.537Z,145386.09
2023-03-10T03:30:05.573Z,145410.13
2023-03-10T03:31:12.983Z,145376.47
2023-03-10T03:32:15.750Z,145390.94
2023-03-10T03:33:18.274Z,145393.31
2023-03-10T03:34:21.377Z,145402.94
2023-03-10T03:35:30.558Z,145417.34
2023-03-10T03:36:33.392Z,145407.72
2023-03-10T03:37:36.020Z,145404.13
2023-03-10T03:38:38.901Z,145402.94
2023-03-10T03:39:41.461Z,145393.31
2023-03-10T03:40:45.629Z,145383.69
2023-03-10T03:41:53.413Z,145406.53
2023-03-10T03:42:56.904Z,145429.38
2023-03-10T03:43:59.546Z,145412.53
2023-03-10T03:45:02.422Z,145417.34
2023-03-10T03:46:05.700Z,145422.19
2023-03-10T03:47:10.599Z,145414.94
2023-03-10T03:48:14.666Z,145418.53
2023-03-10T03:49:17.787Z,145430.59
2023-03-10T03:50:22.964Z,145431.78
2023-03-10T03:51:27.290Z,145430.59
2023-03-10T03:52:30.049Z,145390.94
2023-03-10T03:53:33.988Z,145402.94
2023-03-10T03:54:36.516Z,145400.53
2023-03-10T03:55:39.157Z,145407.72
2023-03-10T03:56:41.913Z,145412.53
2023-03-10T03:57:47.076Z,145423.38
2023-03-10T03:58:49.832Z,145400.53
2023-03-10T03:59:52.721Z,145419.72
2023-03-10T04:00:55.236Z,145402.94
2023-03-10T04:01:57.813Z,145383.69
2023-03-10T04:03:01.022Z,145422.19
2023-03-10T04:04:05.321Z,145402.94
2023-03-10T04:05:08.437Z,145412.53
2023-03-10T04:06:10.958Z,145422.19
2023-03-10T04:07:13.958Z,145398.13
2023-03-10T04:08:16.480Z,145407.72
2023-03-10T04:09:19.003Z,145424.56
2023-03-10T04:10:23.803Z,145445.00
2023-03-10T04:11:26.566Z,145417.34
2023-03-10T04:12:29.718Z,145406.53
2023-03-10T04:13:33.884Z,145429.38
2023-03-10T04:14:37.487Z,145426.97
2023-03-10T04:15:40.537Z,145407.72
2023-03-10T04:16:43.009Z,145394.53
2023-03-10T04:17:45.404Z,145410.13
2023-03-10T04:18:48.067Z,145419.72
2023-03-10T04:20:06.335Z,145404.13
2023-03-10T04:21:10.505Z,145417.34
2023-03-10T04:22:13.255Z,145416.13
2023-03-10T04:23:16.378Z,145418.53
2023-03-10T04:24:18.892Z,145402.94
2023-03-10T04:25:21.413Z,145405.34
2023-03-10T04:26:24.651Z,145419.72
2023-03-10T04:27:27.172Z,145422.19
2023-03-10T04:28:29.600Z,145411.34
2023-03-10T04:29:32.220Z,145396.94
2023-03-10T04:30:35.336Z,145399.31
2023-03-10T04:31:37.989Z,145399.31
2023-03-10T04:32:42.054Z,145396.94
2023-03-10T04:33:46.026Z,145406.53
2023-03-10T04:34:49.379Z,145412.53
2023-03-10T04:35:53.564Z,145413.72
2023-03-10T04:36:57.662Z,145396.94
2023-03-10T04:38:00.184Z,145426.97
2023-03-10T04:39:05.110Z,145431.78
2023-03-10T04:40:12.309Z,145424.56
2023-03-10T04:41:17.605Z,145411.34
2023-03-10T04:42:21.673Z,145399.31
2023-03-10T04:43:25.153Z,145429.38
2023-03-10T04:44:31.396Z,145412.53
2023-03-10T04:45:36.549Z,145402.94
2023-03-10T04:46:39.034Z,145407.72
2023-03-10T04:47:42.312Z,145422.19
2023-03-10T04:48:45.443Z,145417.34
2023-03-10T04:49:48.206Z,145412.53
2023-03-10T04:51:02.485Z,145459.44
2023-03-10T04:52:08.234Z,145422.19
2023-03-10T04:53:10.757Z,145417.34
2023-03-10T04:54:13.395Z,145422.19
2023-03-10T04:55:16.395Z,145429.38
2023-03-10T04:56:19.634Z,145448.59
2023-03-10T04:57:24.677Z,145436.59
2023-03-10T04:59:46.040Z,145426.97
2023-03-10T05:01:02.297Z,145424.56
2023-03-10T05:02:06.840Z,145417.34
2023-03-10T05:03:09.439Z,145404.13
2023-03-10T05:04:12.015Z,145412.53
2023-03-10T05:05:14.602Z,145410.13
2023-03-10T05:06:21.920Z,145425.78
2023-03-10T05:07:50.360Z,145412.53
2023-03-10T05:08:54.800Z,145417.34
2023-03-10T05:09:59.120Z,145386.09
2023-03-10T05:11:06.830Z,145407.72
2023-03-10T05:12:10.764Z,145428.19
2023-03-10T05:13:14.251Z,145388.47
2023-03-10T05:14:18.582Z,145400.53
2023-03-10T05:15:21.083Z,145375.28
2023-03-10T05:16:24.166Z,145395.72
2023-03-10T05:17:29.494Z,145406.53
2023-03-10T05:18:32.374Z,145400.53
2023-03-10T05:19:35.372Z,145423.38
2023-03-10T05:20:38.848Z,145395.72
2023-03-10T05:21:41.511Z,145398.13
2023-03-10T05:22:44.851Z,145400.53
2023-03-10T05:23:47.743Z,145412.53
2023-03-10T05:24:51.208Z,145417.34
2023-03-10T05:25:54.461Z,145398.13
2023-03-10T05:26:59.012Z,145412.53
2023-03-10T05:28:01.654Z,145399.31
2023-03-10T05:29:05.743Z,145419.72
2023-03-10T05:30:19.531Z,145405.34
2023-03-10T05:31:27.887Z,145405.34
2023-03-10T05:32:40.174Z,145387.28
2023-03-10T05:33:43.313Z,145378.88
2023-03-10T05:34:47.021Z,145400.53
2023-03-10T05:35:50.067Z,145395.72
2023-03-10T05:36:53.744Z,145405.34
2023-03-10T05:37:56.499Z,145366.88
2023-03-10T05:38:59.019Z,145378.88
2023-03-10T05:40:03.823Z,145382.47
2023-03-10T05:41:08.744Z,145402.94
2023-03-10T05:42:14.752Z,145410.13
2023-03-10T05:43:17.980Z,145398.13
2023-03-10T05:44:20.989Z,145398.13
2023-03-10T05:45:24.710Z,145393.31
2023-03-10T05:46:28.280Z,145402.94
2023-03-10T05:47:34.064Z,145401.72
2023-03-10T05:48:38.149Z,145405.34
2023-03-10T05:49:40.919Z,145405.34
2023-03-10T05:50:44.147Z,145410.13
2023-03-10T05:51:46.550Z,145413.72
2023-03-10T05:52:49.069Z,145407.72
2023-03-10T05:53:51.714Z,145419.72
2023-03-10T05:54:59.658Z,145398.13
2023-03-10T05:56:09.479Z,145414.94
2023-03-10T05:57:13.982Z,145398.13
2023-03-10T05:58:17.516Z,145418.53
2023-03-10T05:59:20.036Z,145424.56
2023-03-10T06:00:22.923Z,145405.34
2023-03-10T06:01:33.967Z,145429.38
2023-03-10T06:02:39.147Z,145465.44
2023-03-10T06:03:42.236Z,145424.56
2023-03-10T06:04:44.880Z,145416.13
2023-03-10T06:05:47.418Z,145426.97
2023-03-10T06:06:50.058Z,145422.19
2023-03-10T06:07:52.586Z,145419.72
2023-03-10T06:08:55.680Z,145416.13
2023-03-10T06:09:58.215Z,145422.19
2023-03-10T06:11:00.720Z,145412.53
2023-03-10T06:12:03.239Z,145423.38
2023-03-10T06:13:05.953Z,145424.56
2023-03-10T06:14:08.523Z,145412.53
2023-03-10T06:15:11.047Z,145424.56
2023-03-10T06:16:13.597Z,145419.72
2023-03-10T06:17:18.653Z,145422.19
2023-03-10T06:18:22.452Z,145431.78
2023-03-10T06:19:26.064Z,145410.13
2023-03-10T06:20:28.692Z,145411.34
2023-03-10T06:21:31.213Z,145420.94
2023-03-10T06:22:34.245Z,145429.38
2023-03-10T06:23:38.441Z,145442.59
2023-03-10T06:24:40.957Z,145447.38
2023-03-10T06:25:43.701Z,145422.19
2023-03-10T06:26:46.222Z,145430.59
2023-03-10T06:27:48.858Z,145422.19
2023-03-10T06:28:51.259Z,145426.97
2023-03-10T06:29:53.773Z,145422.19
2023-03-10T06:30:57.500Z,145441.38
2023-03-10T06:32:00.265Z,145411.34
2023-03-10T06:33:03.689Z,145426.97
2023-03-10T06:34:06.383Z,145439.00
2023-03-10T06:35:12.265Z,145458.25
2023-03-10T06:36:15.934Z,145463.03
2023-03-10T06:37:19.264Z,145437.78
2023-03-10T06:38:23.080Z,145455.84
2023-03-10T06:39:28.965Z,145435.38
2023-03-10T06:40:31.472Z,145452.19
2023-03-10T06:41:36.274Z,145491.91
2023-03-10T06:42:40.467Z,145446.19
2023-03-10T06:43:43.111Z,145410.13
2023-03-10T06:44:47.374Z,145424.56
2023-03-10T06:45:51.783Z,145419.72
2023-03-10T06:46:54.270Z,145431.78
2023-03-10T06:47:56.802Z,145436.59
2023-03-10T06:49:01.841Z,145428.19
2023-03-10T06:50:06.153Z,145441.38
2023-03-10T06:51:11.552Z,145448.59
2023-03-10T06:52:14.087Z,145436.59
2023-03-10T06:53:19.717Z,145446.19
2023-03-10T06:54:23.198Z,145434.19
2023-03-10T06:55:25.717Z,145429.38
2023-03-10T06:56:28.238Z,145443.78
2023-03-10T06:57:30.640Z,145455.84
2023-03-10T06:58:36.164Z,145465.44
2023-03-10T06:59:38.801Z,145446.19
2023-03-10T07:00:41.445Z,145443.78
2023-03-10T07:01:44.570Z,145455.84
2023-03-10T07:02:47.085Z,145434.19
2023-03-10T07:03:49.973Z,145434.19
2023-03-10T07:04:52.564Z,145459.44
2023-03-10T07:05:56.443Z,145439.00
2023-03-10T07:06:58.967Z,145422.19
2023-03-10T07:08:01.361Z,145434.19
2023-03-10T07:09:04.483Z,145425.78
2023-03-10T07:10:08.374Z,145426.97
2023-03-10T07:11:11.095Z,145439.00
2023-03-10T07:12:13.603Z,145457.03
2023-03-10T07:13:17.457Z,145449.78
2023-03-10T07:14:20.086Z,145461.84
2023-03-10T07:15:23.206Z,145463.03
2023-03-10T07:16:25.801Z,145424.56
2023-03-10T07:17:28.276Z,145443.78
2023-03-10T07:18:30.887Z,145439.00
2023-03-10T07:19:33.531Z,145431.78
2023-03-10T07:20:39.046Z,145441.38
2023-03-10T07:21:41.933Z,145413.72
2023-03-10T07:22:44.702Z,145423.38
2023-03-10T07:23:47.454Z,145425.78
2023-03-10T07:24:53.578Z,145402.94
2023-03-10T07:25:57.435Z,145422.19
2023-03-10T07:27:01.371Z,145426.97
2023-03-10T07:28:05.215Z,145434.19
2023-03-10T07:29:07.856Z,145422.19
2023-03-10T07:30:10.982Z,145434.19
2023-03-10T07:31:14.751Z,145437.78
2023-03-10T07:32:17.379Z,145422.19
2023-03-10T07:33:20.235Z,145406.53
2023-03-10T07:34:22.869Z,145388.47
2023-03-10T07:35:25.872Z,145404.13
2023-03-10T07:36:29.379Z,145410.13
2023-03-10T07:37:31.747Z,145407.72
2023-03-10T07:38:34.384Z,145405.34
2023-03-10T07:39:36.778Z,145434.19
2023-03-10T07:40:40.501Z,145467.84
2023-03-10T07:41:43.028Z,145449.78
2023-03-10T07:42:45.545Z,145439.00
2023-03-10T07:43:52.747Z,145465.44
2023-03-10T07:44:55.268Z,145435.38
2023-03-10T07:45:57.829Z,145436.59
2023-03-10T07:47:00.193Z,145448.59
2023-03-10T07:48:02.708Z,145463.03
2023-03-10T07:49:05.357Z,145451.00
2023-03-10T07:50:08.227Z,145454.63
2023-03-10T07:51:12.566Z,145463.03
2023-03-10T07:52:16.407Z,145459.44
2023-03-10T07:53:18.806Z,145437.78
2023-03-10T07:54:21.434Z,145411.34
2023-03-10T07:55:24.443Z,145434.19
2023-03-10T07:56:27.131Z,145426.97
2023-03-10T07:57:29.715Z,145439.00
2023-03-10T07:58:32.843Z,145449.78
2023-03-10T07:59:35.681Z,145423.38
2023-03-10T08:00:38.697Z,145424.56
2023-03-10T08:01:41.351Z,145416.13
2023-03-10T08:02:44.014Z,145431.78
2023-03-10T08:03:47.694Z,145443.78
2023-03-10T08:04:50.298Z,145454.63
2023-03-10T08:05:53.119Z,145470.25
2023-03-10T08:06:56.373Z,145453.38
2023-03-10T08:08:00.444Z,145466.66
2023-03-10T08:09:05.364Z,145466.66
2023-03-10T08:10:10.415Z,145467.84
2023-03-10T08:11:12.934Z,145436.59
2023-03-10T08:12:15.457Z,145452.19
2023-03-10T08:13:17.979Z,145461.84
2023-03-10T08:14:24.103Z,145459.44
2023-03-10T08:15:27.095Z,145472.66
2023-03-10T08:16:29.798Z,145478.66
2023-03-10T08:17:33.642Z,145485.84
2023-03-10T08:18:36.644Z,145482.25
2023-03-10T08:19:40.286Z,145505.13
2023-03-10T08:20:42.817Z,145496.72
2023-03-10T08:21:45.330Z,145491.91
2023-03-10T08:22:47.854Z,145501.50
2023-03-10T08:23:50.381Z,145530.38
2023-03-10T08:24:52.900Z,145535.19
2023-03-10T08:25:55.427Z,145525.56
2023-03-10T08:26:58.050Z,145529.19
2023-03-10T08:28:00.591Z,145518.31
2023-03-10T08:29:03.096Z,145525.56
2023-03-10T08:30:06.468Z,145541.19
2023-03-10T08:31:11.064Z,145564.03
2023-03-10T08:32:13.568Z,145541.19
2023-03-10T08:33:16.053Z,145542.38
2023-03-10T08:34:18.951Z,145562.84
2023-03-10T08:35:21.461Z,145590.50
2023-03-10T08:36:26.647Z,145629.00
2023-03-10T08:37:29.139Z,145597.72
2023-03-10T08:38:31.551Z,145564.03
2023-03-10T08:39:34.065Z,145574.84
2023-03-10T08:40:36.580Z,145578.47
2023-03-10T08:41:49.114Z,145626.59
2023-03-10T08:42:51.945Z,145613.34
2023-03-10T08:43:56.625Z,145641.00
2023-03-10T08:44:59.149Z,145631.41
2023-03-10T08:46:01.665Z,145656.66
2023-03-10T08:47:04.536Z,145681.94
2023-03-10T08:48:06.945Z,145655.47
2023-03-10T08:49:10.067Z,145689.16
2023-03-10T08:50:13.550Z,145720.44
2023-03-10T08:51:16.814Z,145728.84
2023-03-10T08:52:19.430Z,145693.97
2023-03-10T08:53:21.848Z,145704.78
2023-03-10T08:54:24.351Z,145720.44
2023-03-10T08:55:26.880Z,145731.25
2023-03-10T08:56:29.519Z,145724.03
2023-03-10T08:57:32.514Z,145728.84
2023-03-10T08:58:35.165Z,145691.56
2023-03-10T08:59:37.721Z,145707.19
2023-03-10T09:00:40.205Z,145715.63
2023-03-10T09:01:42.800Z,145757.75
2023-03-10T09:02:45.618Z,145758.94
2023-03-10T09:03:48.246Z,145761.34
2023-03-10T09:04:51.000Z,145776.97
2023-03-10T09:05:55.571Z,145829.94
2023-03-10T09:06:58.081Z,145845.59
2023-03-10T09:08:00.483Z,145854.03
2023-03-10T09:09:05.407Z,145849.22
2023-03-10T09:10:08.043Z,145868.44
2023-03-10T09:11:16.812Z,145862.44
2023-03-10T09:12:19.330Z,145850.41
2023-03-10T09:13:22.094Z,145866.03
2023-03-10T09:14:24.643Z,145848.00
2023-03-10T09:15:27.135Z,145860.03
2023-03-10T09:16:30.273Z,145837.16
2023-03-10T09:17:32.765Z,145869.66
2023-03-10T09:18:36.013Z,145785.44
2023-03-10T09:19:38.527Z,145804.66
2023-03-10T09:20:41.896Z,145769.75
2023-03-10T09:21:44.412Z,145736.06
2023-03-10T09:22:46.933Z,145725.25
2023-03-10T09:23:52.939Z,145731.25
2023-03-10T09:24:55.485Z,145739.66
2023-03-10T09:25:57.969Z,145727.66
2023-03-10T09:27:00.505Z,145756.53
2023-03-10T09:28:03.014Z,145770.97
2023-03-10T09:29:05.655Z,145725.25
2023-03-10T09:30:08.534Z,145739.66
2023-03-10T09:31:18.544Z,145730.06
2023-03-10T09:32:21.160Z,145715.63
2023-03-10T09:33:23.782Z,145730.06
2023-03-10T09:34:27.746Z,145743.28
2023-03-10T09:35:30.528Z,145713.19
2023-03-10T09:36:33.301Z,145691.56
2023-03-10T09:37:35.780Z,145679.50
2023-03-10T09:38:38.310Z,145681.94
2023-03-10T09:39:40.820Z,145663.88
2023-03-10T09:40:49.344Z,145683.16
2023-03-10T09:42:07.014Z,145705.97
2023-03-10T09:43:19.615Z,145674.69
2023-03-10T09:44:53.066Z,145695.16
2023-03-10T09:46:06.550Z,145686.75
2023-03-10T09:47:34.227Z,145689.16
2023-03-10T09:48:57.154Z,145724.03
2023-03-10T09:50:16.351Z,145779.41
2023-03-10T09:51:24.749Z,145823.94
2023-03-10T09:52:45.753Z,145843.22
2023-03-10T09:53:58.488Z,145810.72
2023-03-10T09:55:06.633Z,145787.81
2023-03-10T09:56:31.836Z,145841.97
2023-03-10T09:57:35.922Z,145832.34
2023-03-10T09:58:44.200Z,145833.53
2023-03-10T09:59:50.086Z,145839.56
2023-03-10T10:00:52.490Z,145844.41
2023-03-10T10:01:56.076Z,145905.78
2023-03-10T10:03:08.886Z,145867.25
2023-03-10T10:04:18.225Z,145925.03
2023-03-10T10:05:26.444Z,145925.03
2023-03-10T10:06:33.884Z,145937.06
2023-03-10T10:08:16.121Z,145940.72
2023-03-10T10:09:30.401Z,145913.03
2023-03-10T10:10:37.122Z,145929.84
2023-03-10T10:11:40.134Z,145925.03
2023-03-10T10:12:43.730Z,145917.84
2023-03-10T10:13:46.243Z,145931.06
2023-03-10T10:14:57.191Z,145939.47
2023-03-10T10:16:33.416Z,145927.44
2023-03-10T10:17:53.046Z,145896.16
2023-03-10T10:19:14.207Z,145920.25
2023-03-10T10:20:46.608Z,145904.56
2023-03-10T10:21:55.366Z,145885.31
2023-03-10T10:22:57.887Z,145799.84
2023-03-10T10:24:00.525Z,145755.34
2023-03-10T10:25:08.887Z,145829.94
2023-03-10T10:26:17.569Z,145808.25
2023-03-10T10:27:21.828Z,145799.84
2023-03-10T10:28:50.912Z,145860.03
2023-03-10T10:29:53.575Z,145831.16
2023-03-10T10:31:14.065Z,145860.03
2023-03-10T10:32:18.256Z,145846.81
2023-03-10T10:33:20.934Z,145827.53
2023-03-10T10:34:23.452Z,145832.34
2023-03-10T10:35:28.031Z,145761.34
2023-03-10T10:36:34.012Z,145792.63
2023-03-10T10:37:41.413Z,145756.53
2023-03-10T10:38:49.740Z,145770.97
2023-03-10T10:39:53.939Z,145766.16
2023-03-10T10:41:04.594Z,145787.81
2023-03-10T10:42:29.831Z,145730.06
2023-03-10T10:43:40.986Z,145770.97
2023-03-10T10:44:45.064Z,145778.22
2023-03-10T10:45:56.766Z,145828.75
2023-03-10T10:47:00.588Z,145801.03
2023-03-10T10:48:04.509Z,145728.84
2023-03-10T10:49:27.693Z,145769.75
2023-03-10T10:50:35.589Z,145793.84
2023-03-10T10:51:38.908Z,145775.75
2023-03-10T10:52:41.623Z,145804.66
2023-03-10T10:53:44.233Z,145796.25
2023-03-10T10:54:56.714Z,145811.91
2023-03-10T10:56:15.551Z,145828.75
2023-03-10T10:57:21.312Z,145793.84
2023-03-10T10:58:35.852Z,145802.25
2023-03-10T10:59:38.601Z,145767.34
2023-03-10T11:00:41.246Z,145808.25
2023-03-10T11:02:01.670Z,145844.41
2023-03-10T11:03:24.558Z,145831.16
2023-03-10T11:04:43.174Z,145769.75
2023-03-10T11:05:45.686Z,145755.34
2023-03-10T11:06:50.482Z,145732.47
2023-03-10T11:07:53.285Z,145774.56
2023-03-10T11:09:18.431Z,145849.22
2023-03-10T11:10:28.161Z,145845.59
2023-03-10T11:12:12.683Z,145850.41
2023-03-10T11:13:19.286Z,145831.16
2023-03-10T11:14:49.436Z,145835.94
2023-03-10T11:16:32.246Z,145855.22
2023-03-10T11:17:40.407Z,145898.56
2023-03-10T11:19:11.252Z,145920.25
2023-03-10T11:20:25.676Z,145897.34
2023-03-10T11:21:35.016Z,145927.44
2023-03-10T11:22:53.373Z,145951.56
2023-03-10T11:24:45.452Z,145898.56
2023-03-10T11:26:05.612Z,145943.13
2023-03-10T11:27:46.535Z,145990.06
2023-03-10T11:29:21.015Z,145968.38
2023-03-10T11:30:35.384Z,145955.16
2023-03-10T11:31:53.139Z,145969.59
2023-03-10T11:33:04.662Z,145965.97
2023-03-10T11:34:32.034Z,145927.44
2023-03-10T11:35:46.735Z,145910.63
2023-03-10T11:37:17.047Z,145923.84
2023-03-10T11:38:43.542Z,145897.34
2023-03-10T11:40:15.943Z,145926.25
2023-03-10T11:41:28.790Z,145888.94
2023-03-10T11:42:40.064Z,145787.81
2023-03-10T11:44:03.590Z,145787.81
2023-03-10T11:45:29.270Z,145828.75
2023-03-10T11:46:44.405Z,145823.94
2023-03-10T11:48:16.432Z,145766.16
2023-03-10T11:49:24.364Z,145799.84
2023-03-10T11:50:44.748Z,145787.81
2023-03-10T11:52:10.583Z,145848.00
2023-03-10T11:53:19.429Z,145831.16
2023-03-10T11:54:35.163Z,145831.16
2023-03-10T11:55:39.353Z,145843.22
2023-03-10T11:56:42.117Z,145823.94
2023-03-10T11:57:50.520Z,145850.41
2023-03-10T11:58:58.567Z,145835.94
2023-03-10T12:00:05.875Z,145770.97
2023-03-10T12:01:14.155Z,145814.31
2023-03-10T12:02:42.738Z,145814.31
2023-03-10T12:04:02.758Z,145786.63
2023-03-10T12:05:21.349Z,145838.34
2023-03-10T12:06:29.880Z,145804.66
2023-03-10T12:07:38.044Z,145816.72
2023-03-10T12:08:41.764Z,145835.94
2023-03-10T12:09:54.136Z,145873.25
2023-03-10T12:10:59.771Z,145852.81
2023-03-10T12:12:05.320Z,145898.56
2023-03-10T12:13:21.365Z,145910.63
2023-03-10T12:14:25.452Z,145908.22
2023-03-10T12:15:37.172Z,145855.22
2023-03-10T12:16:42.024Z,145822.72
2023-03-10T12:17:45.853Z,145833.53
2023-03-10T12:18:48.746Z,145783.03
2023-03-10T12:20:16.550Z,145867.25
2023-03-10T12:21:23.053Z,145849.22
2023-03-10T12:22:36.027Z,145829.94
2023-03-10T12:23:41.892Z,145820.31
2023-03-10T12:24:46.573Z,145845.59
2023-03-10T12:25:49.333Z,145821.53
2023-03-10T12:27:03.490Z,145845.59
2023-03-10T12:28:18.198Z,145888.94
2023-03-10T12:29:20.591Z,145864.84
2023-03-10T12:31:00.133Z,145903.38
2023-03-10T12:32:03.214Z,145845.59
2023-03-10T12:33:42.184Z,145922.66
2023-03-10T12:34:44.655Z,145860.03
2023-03-10T12:35:50.983Z,145896.16